createdAt,value
2019-03-31T00:01:07.322Z,931.07
2019-03-31T00:01:53.698Z,931.11
2019-03-31T00:02:53.688Z,931.11
2019-03-31T00:03:53.769Z,931.13
2019-03-31T00:04:53.775Z,931.11
2019-03-31T00:05:53.862Z,931.13
2019-03-31T00:06:53.877Z,931.09
2019-03-31T00:07:53.938Z,931.10
2019-03-31T00:08:53.981Z,931.08
2019-03-31T00:09:54.033Z,931.02
2019-03-31T00:10:54.048Z,931.08
2019-03-31T00:11:54.117Z,931.12
2019-03-31T00:12:54.145Z,931.11
2019-03-31T00:13:54.207Z,931.12
2019-03-31T00:14:54.259Z,931.06
2019-03-31T00:15:54.299Z,931.05
2019-03-31T00:16:54.345Z,931.05
2019-03-31T00:17:54.369Z,931.07
2019-03-31T00:18:54.410Z,931.04
2019-03-31T00:19:54.459Z,931.06
2019-03-31T00:20:54.521Z,930.99
2019-03-31T00:21:54.575Z,931.02
2019-03-31T00:22:54.645Z,931.01
2019-03-31T00:23:54.672Z,930.98
2019-03-31T00:24:54.721Z,931.03
2019-03-31T00:25:54.733Z,931.00
2019-03-31T00:26:54.782Z,931.03
2019-03-31T00:27:54.830Z,931.08
2019-03-31T00:28:54.876Z,931.04
2019-03-31T00:29:54.930Z,930.99
2019-03-31T00:30:54.977Z,931.00
2019-03-31T00:31:55.048Z,931.00
2019-03-31T00:32:55.058Z,931.02
2019-03-31T00:33:55.101Z,931.09
2019-03-31T00:34:55.171Z,931.06
2019-03-31T00:35:55.213Z,931.08
2019-03-31T00:36:55.221Z,931.07
2019-03-31T00:37:55.309Z,931.04
2019-03-31T00:38:55.329Z,931.03
2019-03-31T00:39:55.427Z,930.97
2019-03-31T00:40:55.413Z,931.03
2019-03-31T00:41:55.457Z,930.99
2019-03-31T00:42:55.514Z,931.06
2019-03-31T00:43:55.561Z,931.03
2019-03-31T00:44:55.674Z,931.06
2019-03-31T00:45:55.647Z,931.08
2019-03-31T00:46:55.691Z,931.07
2019-03-31T00:47:55.741Z,931.02
2019-03-31T00:48:55.792Z,930.98
2019-03-31T00:49:55.844Z,930.98
2019-03-31T00:50:55.869Z,930.95
2019-03-31T00:51:55.968Z,930.95
2019-03-31T00:52:55.966Z,930.97
2019-03-31T00:53:56.054Z,930.95
2019-03-31T00:54:56.040Z,930.94
2019-03-31T00:55:56.164Z,930.93
2019-03-31T00:56:56.165Z,930.89
2019-03-31T00:57:56.187Z,930.88
2019-03-31T00:58:56.238Z,930.90
2019-03-31T00:59:56.331Z,930.91
2019-03-31T01:00:56.349Z,930.92
2019-03-31T01:01:56.360Z,930.88
2019-03-31T01:02:56.429Z,930.87
2019-03-31T01:03:56.466Z,930.90
2019-03-31T01:04:56.526Z,930.90
2019-03-31T01:05:56.591Z,930.90
2019-03-31T01:06:56.602Z,930.92
2019-03-31T01:07:56.686Z,930.88
2019-03-31T01:08:56.691Z,930.93
2019-03-31T01:09:56.758Z,930.87
2019-03-31T01:10:56.788Z,930.88
2019-03-31T01:11:56.867Z,930.85
2019-03-31T01:12:56.867Z,930.82
2019-03-31T01:13:56.927Z,930.79
2019-03-31T01:14:57.000Z,930.76
2019-03-31T01:15:56.993Z,930.76
2019-03-31T01:16:57.049Z,930.74
2019-03-31T01:17:57.105Z,930.78
2019-03-31T01:18:57.123Z,930.74
2019-03-31T01:19:57.219Z,930.77
2019-03-31T01:20:57.227Z,930.78
2019-03-31T01:21:57.260Z,930.78
2019-03-31T01:22:57.310Z,930.80
2019-03-31T01:23:57.402Z,930.81
2019-03-31T01:24:57.460Z,930.80
2019-03-31T01:26:00.403Z,930.76
2019-03-31T01:26:57.519Z,930.80
2019-03-31T01:27:57.540Z,930.77
2019-03-31T01:28:57.574Z,930.72
2019-03-31T01:29:57.628Z,930.73
2019-03-31T01:30:57.660Z,930.67
2019-03-31T01:31:57.735Z,930.67
2019-03-31T01:32:57.771Z,930.68
2019-03-31T01:33:57.809Z,930.67
2019-03-31T01:34:57.860Z,930.68
2019-03-31T01:35:57.880Z,930.68
2019-03-31T01:36:57.940Z,930.73
2019-03-31T01:37:57.959Z,930.71
2019-03-31T01:38:58.031Z,930.71
2019-03-31T01:39:58.074Z,930.72
2019-03-31T01:40:58.129Z,930.71
2019-03-31T01:41:58.160Z,930.71
2019-03-31T01:42:58.195Z,930.70
2019-03-31T01:43:58.251Z,930.67
2019-03-31T01:44:58.354Z,930.60
2019-03-31T01:45:58.358Z,930.64
2019-03-31T01:46:58.374Z,930.60
2019-03-31T01:47:58.450Z,930.59
2019-03-31T01:48:58.471Z,930.59
2019-03-31T01:49:58.537Z,930.56
2019-03-31T01:50:58.565Z,930.56
2019-03-31T01:51:58.592Z,930.51
2019-03-31T01:52:58.683Z,930.49
2019-03-31T01:53:58.747Z,930.53
2019-03-31T01:54:58.744Z,930.52
2019-03-31T01:55:58.782Z,930.50
2019-03-31T01:56:58.845Z,930.55
2019-03-31T01:57:58.889Z,930.55
2019-03-31T01:58:58.929Z,930.52
2019-03-31T01:59:58.986Z,930.53
2019-03-31T02:00:59.031Z,930.53
2019-03-31T02:02:04.532Z,930.54
2019-03-31T02:02:59.114Z,930.55
2019-03-31T02:03:59.221Z,930.54
2019-03-31T02:04:59.199Z,930.55
2019-03-31T02:05:59.229Z,930.59
2019-03-31T02:06:59.279Z,930.60
2019-03-31T02:07:59.378Z,930.61
2019-03-31T02:08:59.383Z,930.58
2019-03-31T02:09:59.429Z,930.54
2019-03-31T02:10:59.458Z,930.54
2019-03-31T02:11:59.510Z,930.51
2019-03-31T02:12:59.596Z,930.54
2019-03-31T02:13:59.609Z,930.51
2019-03-31T02:14:59.645Z,930.54
2019-03-31T02:15:59.680Z,930.48
2019-03-31T02:16:59.753Z,930.51
2019-03-31T02:17:59.826Z,930.49
2019-03-31T02:18:59.823Z,930.51
2019-03-31T02:19:59.870Z,930.51
2019-03-31T02:20:59.931Z,930.54
2019-03-31T02:21:59.953Z,930.52
2019-03-31T02:23:00.032Z,930.52
2019-03-31T02:24:00.050Z,930.50
2019-03-31T02:25:00.111Z,930.49
2019-03-31T02:26:00.176Z,930.51
2019-03-31T02:27:00.188Z,930.51
2019-03-31T02:28:00.275Z,930.49
2019-03-31T02:29:00.299Z,930.47
2019-03-31T02:30:00.664Z,930.44
2019-03-31T02:31:00.410Z,930.49
2019-03-31T02:32:00.433Z,930.48
2019-03-31T02:33:00.466Z,930.50
2019-03-31T02:34:00.534Z,930.47
2019-03-31T02:35:00.565Z,930.50
2019-03-31T02:36:00.597Z,930.49
2019-03-31T02:37:00.642Z,930.45
2019-03-31T02:38:00.679Z,930.45
2019-03-31T02:39:00.727Z,930.47
2019-03-31T02:40:00.786Z,930.45
2019-03-31T02:41:00.838Z,930.43
2019-03-31T02:42:00.884Z,930.44
2019-03-31T02:43:00.924Z,930.45
2019-03-31T02:44:00.971Z,930.46
2019-03-31T02:45:01.023Z,930.47
2019-03-31T02:46:01.048Z,930.48
2019-03-31T02:47:01.105Z,930.47
2019-03-31T02:48:01.155Z,930.51
2019-03-31T02:49:01.184Z,930.48
2019-03-31T02:50:01.219Z,930.47
2019-03-31T02:51:01.281Z,930.47
2019-03-31T02:52:01.370Z,930.44
2019-03-31T02:53:01.373Z,930.47
2019-03-31T02:54:01.430Z,930.45
2019-03-31T02:55:01.477Z,930.48
2019-03-31T02:56:01.498Z,930.45
2019-03-31T02:57:01.598Z,930.43
2019-03-31T02:58:01.607Z,930.41
2019-03-31T02:59:01.657Z,930.41
2019-03-31T03:00:01.738Z,930.46
2019-03-31T03:01:01.735Z,930.53
2019-03-31T03:02:01.825Z,930.48
2019-03-31T03:03:01.870Z,930.47
2019-03-31T03:04:01.859Z,930.47
2019-03-31T03:05:17.465Z,930.47
2019-03-31T03:06:01.973Z,930.45
2019-03-31T03:07:01.996Z,930.41
2019-03-31T03:08:02.055Z,930.38
2019-03-31T03:09:02.088Z,930.36
2019-03-31T03:10:02.141Z,930.35
2019-03-31T03:11:02.164Z,930.35
2019-03-31T03:12:02.231Z,930.33
2019-03-31T03:13:02.269Z,930.35
2019-03-31T03:14:02.311Z,930.36
2019-03-31T03:15:02.382Z,930.36
2019-03-31T03:16:02.383Z,930.39
2019-03-31T03:17:02.491Z,930.36
2019-03-31T03:18:02.511Z,930.37
2019-03-31T03:19:02.548Z,930.36
2019-03-31T03:20:02.627Z,930.23
2019-03-31T03:21:02.641Z,930.33
2019-03-31T03:22:02.688Z,930.34
2019-03-31T03:23:02.709Z,930.32
2019-03-31T03:24:02.808Z,930.28
2019-03-31T03:25:02.816Z,930.29
2019-03-31T03:26:02.871Z,930.32
2019-03-31T03:27:02.914Z,930.30
2019-03-31T03:28:02.963Z,930.30
2019-03-31T03:29:02.989Z,930.32
2019-03-31T03:30:03.063Z,930.31
2019-03-31T03:31:03.392Z,930.37
2019-03-31T03:32:03.130Z,930.31
2019-03-31T03:33:18.369Z,930.30
2019-03-31T03:34:03.235Z,930.28
2019-03-31T03:35:03.257Z,930.30
2019-03-31T03:36:03.318Z,930.24
2019-03-31T03:37:03.343Z,930.23
2019-03-31T03:38:03.385Z,930.21
2019-03-31T03:39:03.443Z,930.19
2019-03-31T03:40:03.530Z,930.16
2019-03-31T03:41:03.548Z,930.20
2019-03-31T03:42:03.626Z,930.13
2019-03-31T03:43:03.676Z,930.11
2019-03-31T03:44:03.708Z,930.11
2019-03-31T03:45:03.715Z,930.15
2019-03-31T03:46:03.771Z,930.17
2019-03-31T03:47:03.822Z,930.12
2019-03-31T03:48:03.894Z,930.14
2019-03-31T03:49:04.013Z,930.20
2019-03-31T03:50:03.969Z,930.15
2019-03-31T03:51:03.978Z,930.18
2019-03-31T03:52:04.016Z,930.16
2019-03-31T03:53:04.121Z,930.11
2019-03-31T03:54:04.122Z,930.09
2019-03-31T03:55:04.173Z,930.07
2019-03-31T03:56:04.228Z,930.04
2019-03-31T03:57:04.258Z,930.02
2019-03-31T03:58:04.284Z,930.00
2019-03-31T03:59:04.395Z,929.98
2019-03-31T04:00:04.385Z,929.96
2019-03-31T04:01:04.431Z,929.96
2019-03-31T04:02:04.461Z,929.96
2019-03-31T04:03:04.561Z,929.90
2019-03-31T04:04:04.576Z,929.98
2019-03-31T04:05:04.661Z,929.95
2019-03-31T04:06:04.663Z,929.99
2019-03-31T04:07:04.710Z,930.01
2019-03-31T04:08:04.749Z,929.94
2019-03-31T04:09:04.837Z,929.95
2019-03-31T04:10:04.850Z,929.95
2019-03-31T04:11:04.869Z,929.91
2019-03-31T04:12:04.918Z,929.84
2019-03-31T04:13:04.954Z,929.85
2019-03-31T04:14:05.013Z,929.75
2019-03-31T04:15:05.053Z,929.88
2019-03-31T04:16:05.117Z,929.81
2019-03-31T04:17:05.165Z,929.80
2019-03-31T04:18:05.189Z,929.81
2019-03-31T04:19:05.314Z,929.78
2019-03-31T04:20:05.293Z,929.77
2019-03-31T04:21:05.321Z,929.75
2019-03-31T04:22:05.383Z,929.76
2019-03-31T04:23:05.435Z,929.73
2019-03-31T04:24:05.459Z,929.76
2019-03-31T04:25:05.522Z,929.74
2019-03-31T04:26:05.531Z,929.76
2019-03-31T04:27:05.606Z,929.73
2019-03-31T04:28:05.649Z,929.75
2019-03-31T04:29:05.666Z,929.73
2019-03-31T04:30:05.724Z,929.70
2019-03-31T04:31:05.781Z,929.67
2019-03-31T04:32:05.819Z,929.62
2019-03-31T04:33:05.864Z,929.63
2019-03-31T04:34:05.913Z,929.62
2019-03-31T04:35:05.943Z,929.62
2019-03-31T04:36:05.977Z,929.61
2019-03-31T04:37:06.062Z,929.56
2019-03-31T04:38:06.070Z,929.53
2019-03-31T04:39:06.133Z,929.55
2019-03-31T04:40:06.156Z,929.52
2019-03-31T04:41:06.257Z,929.47
2019-03-31T04:42:06.293Z,929.42
2019-03-31T04:43:06.296Z,929.38
2019-03-31T04:44:06.355Z,929.35
2019-03-31T04:45:06.381Z,929.35
2019-03-31T04:46:06.443Z,929.40
2019-03-31T04:47:06.510Z,929.32
2019-03-31T04:48:06.530Z,929.35
2019-03-31T04:49:06.562Z,929.37
2019-03-31T04:50:06.598Z,929.37
2019-03-31T04:51:06.656Z,929.33
2019-03-31T04:52:06.711Z,929.31
2019-03-31T04:53:06.736Z,929.35
2019-03-31T04:54:06.840Z,929.37
2019-03-31T04:55:06.842Z,929.31
2019-03-31T04:56:06.904Z,929.35
2019-03-31T04:57:06.966Z,929.34
2019-03-31T04:58:06.954Z,929.31
2019-03-31T04:59:06.994Z,929.30
2019-03-31T05:00:07.048Z,929.30
2019-03-31T05:01:07.090Z,929.30
2019-03-31T05:02:07.155Z,929.26
2019-03-31T05:03:07.161Z,929.29
2019-03-31T05:04:07.243Z,929.28
2019-03-31T05:05:07.282Z,929.30
2019-03-31T05:06:07.335Z,929.27
2019-03-31T05:07:07.343Z,929.25
2019-03-31T05:08:07.418Z,929.26
2019-03-31T05:09:07.449Z,929.23
2019-03-31T05:10:07.508Z,929.18
2019-03-31T05:11:07.573Z,929.20
2019-03-31T05:12:07.620Z,929.23
2019-03-31T05:13:07.617Z,929.26
2019-03-31T05:14:07.663Z,929.16
2019-03-31T05:15:07.722Z,929.16
2019-03-31T05:16:07.759Z,929.12
2019-03-31T05:17:07.806Z,929.12
2019-03-31T05:18:07.834Z,929.14
2019-03-31T05:19:07.883Z,929.13
2019-03-31T05:20:07.922Z,929.11
2019-03-31T05:21:07.973Z,929.11
2019-03-31T05:22:08.019Z,929.02
2019-03-31T05:23:08.068Z,929.10
2019-03-31T05:24:08.145Z,929.05
2019-03-31T05:25:08.138Z,929.07
2019-03-31T05:26:08.178Z,929.09
2019-03-31T05:27:08.243Z,929.06
2019-03-31T05:28:08.266Z,929.07
2019-03-31T05:29:08.323Z,929.06
2019-03-31T05:30:08.346Z,929.07
2019-03-31T05:31:08.424Z,929.07
2019-03-31T05:32:08.448Z,929.01
2019-03-31T05:33:08.496Z,929.07
2019-03-31T05:34:18.905Z,929.07
2019-03-31T05:35:08.590Z,929.05
2019-03-31T05:36:08.677Z,929.05
2019-03-31T05:37:08.680Z,929.06
2019-03-31T05:38:08.706Z,929.10
2019-03-31T05:39:08.754Z,929.05
2019-03-31T05:40:08.820Z,929.04
2019-03-31T05:41:08.852Z,929.06
2019-03-31T05:42:08.883Z,928.99
2019-03-31T05:43:08.980Z,929.00
2019-03-31T05:44:08.960Z,929.00
2019-03-31T05:45:09.022Z,929.03
2019-03-31T05:46:09.083Z,928.98
2019-03-31T05:47:09.129Z,928.99
2019-03-31T05:48:09.146Z,928.93
2019-03-31T05:49:09.197Z,928.93
2019-03-31T05:50:09.251Z,928.93
2019-03-31T05:51:09.291Z,928.91
2019-03-31T05:52:09.313Z,928.89
2019-03-31T05:53:09.357Z,928.89
2019-03-31T05:54:09.414Z,928.88
2019-03-31T05:55:09.474Z,928.84
2019-03-31T05:56:09.495Z,928.84
2019-03-31T05:57:09.558Z,928.82
2019-03-31T05:58:09.605Z,928.82
2019-03-31T05:59:09.673Z,928.77
2019-03-31T06:00:09.715Z,928.74
2019-03-31T06:01:09.756Z,928.71
2019-03-31T06:02:09.788Z,928.75
2019-03-31T06:03:09.821Z,928.77
2019-03-31T06:04:09.859Z,928.77
2019-03-31T06:05:09.907Z,928.80
2019-03-31T06:06:09.951Z,928.81
2019-03-31T06:07:09.990Z,928.82
2019-03-31T06:08:10.028Z,928.87
2019-03-31T06:09:10.086Z,928.85
2019-03-31T06:10:10.105Z,928.82
2019-03-31T06:11:10.164Z,928.81
2019-03-31T06:12:10.214Z,928.75
2019-03-31T06:13:10.293Z,928.73
2019-03-31T06:14:10.299Z,928.72
2019-03-31T06:15:10.327Z,928.74
2019-03-31T06:16:10.406Z,928.77
2019-03-31T06:17:10.444Z,928.76
2019-03-31T06:18:10.456Z,928.79
2019-03-31T06:19:10.522Z,928.74
2019-03-31T06:20:10.575Z,928.73
2019-03-31T06:21:10.586Z,928.68
2019-03-31T06:22:10.645Z,928.68
2019-03-31T06:23:10.733Z,928.69
2019-03-31T06:24:10.734Z,928.68
2019-03-31T06:25:10.775Z,928.63
2019-03-31T06:26:10.821Z,928.62
2019-03-31T06:27:10.874Z,928.56
2019-03-31T06:28:10.907Z,928.55
2019-03-31T06:29:10.950Z,928.53
2019-03-31T06:30:10.970Z,928.52
2019-03-31T06:31:11.034Z,928.49
2019-03-31T06:32:11.081Z,928.48
2019-03-31T06:33:11.139Z,928.49
2019-03-31T06:34:11.174Z,928.50
2019-03-31T06:35:11.237Z,928.52
2019-03-31T06:36:11.268Z,928.49
2019-03-31T06:37:11.305Z,928.53
2019-03-31T06:38:11.326Z,928.54
2019-03-31T06:39:11.424Z,928.54
2019-03-31T06:40:11.426Z,928.58
2019-03-31T06:41:11.476Z,928.61
2019-03-31T06:42:11.518Z,928.60
2019-03-31T06:43:11.566Z,928.65
2019-03-31T06:44:11.622Z,928.67
2019-03-31T06:45:11.635Z,928.57
2019-03-31T06:46:11.696Z,928.60
2019-03-31T06:47:11.727Z,928.56
2019-03-31T06:48:11.787Z,928.51
2019-03-31T06:49:11.829Z,928.53
2019-03-31T06:50:11.873Z,928.53
2019-03-31T06:51:11.923Z,928.54
2019-03-31T06:52:11.971Z,928.56
2019-03-31T06:53:12.007Z,928.59
2019-03-31T06:54:12.041Z,928.58
2019-03-31T06:55:12.083Z,928.57
2019-03-31T06:56:12.112Z,928.56
2019-03-31T06:57:12.188Z,928.58
2019-03-31T06:58:12.201Z,928.57
2019-03-31T06:59:12.276Z,928.55
2019-03-31T07:00:12.348Z,928.57
2019-03-31T07:01:12.361Z,928.57
2019-03-31T07:02:12.401Z,928.51
2019-03-31T07:03:12.439Z,928.51
2019-03-31T07:04:12.491Z,928.48
2019-03-31T07:05:12.574Z,928.44
2019-03-31T07:06:12.593Z,928.40
2019-03-31T07:07:12.599Z,928.35
2019-03-31T07:08:12.648Z,928.32
2019-03-31T07:09:12.737Z,928.27
2019-03-31T07:10:12.736Z,928.22
2019-03-31T07:11:12.781Z,928.20
2019-03-31T07:12:12.836Z,928.21
2019-03-31T07:13:12.880Z,928.21
2019-03-31T07:14:12.927Z,928.24
2019-03-31T07:15:12.955Z,928.23
2019-03-31T07:16:13.002Z,928.23
2019-03-31T07:17:13.080Z,928.20
2019-03-31T07:18:15.920Z,928.17
2019-03-31T07:19:13.176Z,928.24
2019-03-31T07:20:13.189Z,928.19
2019-03-31T07:21:13.199Z,928.18
2019-03-31T07:22:13.243Z,928.16
2019-03-31T07:23:13.349Z,928.18
2019-03-31T07:24:13.359Z,928.17
2019-03-31T07:25:13.393Z,928.19
2019-03-31T07:26:13.437Z,928.14
2019-03-31T07:27:13.513Z,928.19
2019-03-31T07:28:13.531Z,928.21
2019-03-31T07:29:13.576Z,928.20
2019-03-31T07:30:13.616Z,928.21
2019-03-31T07:31:13.651Z,928.19
2019-03-31T07:32:13.686Z,928.21
2019-03-31T07:33:13.715Z,928.23
2019-03-31T07:34:13.780Z,928.24
2019-03-31T07:35:18.749Z,928.16
2019-03-31T07:36:13.862Z,928.22
2019-03-31T07:37:13.900Z,928.20
2019-03-31T07:38:14.033Z,928.23
2019-03-31T07:39:14.091Z,928.24
2019-03-31T07:40:14.122Z,928.23
2019-03-31T07:41:14.307Z,928.25
2019-03-31T07:42:14.166Z,928.25
2019-03-31T07:43:14.384Z,928.23
2019-03-31T07:44:15.461Z,928.22
2019-03-31T07:45:14.257Z,928.21
2019-03-31T07:46:14.305Z,928.24
2019-03-31T07:47:14.341Z,928.28
2019-03-31T07:48:14.387Z,928.28
2019-03-31T07:49:14.475Z,928.31
2019-03-31T07:50:14.486Z,928.33
2019-03-31T07:51:14.510Z,928.31
2019-03-31T07:52:14.571Z,928.32
2019-03-31T07:53:14.616Z,928.31
2019-03-31T07:54:14.642Z,928.36
2019-03-31T07:55:14.705Z,928.31
2019-03-31T07:56:16.225Z,928.33
2019-03-31T07:57:14.783Z,928.43
2019-03-31T07:58:14.831Z,928.43
2019-03-31T07:59:14.918Z,928.38
2019-03-31T08:00:14.907Z,928.38
2019-03-31T08:01:15.004Z,928.36
2019-03-31T08:02:15.004Z,928.34
2019-03-31T08:03:15.045Z,928.35
2019-03-31T08:04:15.111Z,928.32
2019-03-31T08:05:15.125Z,928.36
2019-03-31T08:06:15.166Z,928.29
2019-03-31T08:07:15.211Z,928.29
2019-03-31T08:08:15.252Z,928.29
2019-03-31T08:09:15.322Z,928.29
2019-03-31T08:10:15.362Z,928.34
2019-03-31T08:11:17.115Z,928.30
2019-03-31T08:12:15.433Z,928.37
2019-03-31T08:13:15.506Z,928.44
2019-03-31T08:14:15.525Z,928.48
2019-03-31T08:15:15.565Z,928.51
2019-03-31T08:16:15.620Z,928.47
2019-03-31T08:17:15.648Z,928.53
2019-03-31T08:18:15.753Z,928.49
2019-03-31T08:19:15.739Z,928.48
2019-03-31T08:20:15.817Z,928.51
2019-03-31T08:21:15.816Z,928.50
2019-03-31T08:22:15.859Z,928.46
2019-03-31T08:23:15.952Z,928.42
2019-03-31T08:24:15.987Z,928.42
2019-03-31T08:25:15.995Z,928.46
2019-03-31T08:26:16.059Z,928.43
2019-03-31T08:27:16.080Z,928.43
2019-03-31T08:28:16.143Z,928.45
2019-03-31T08:29:16.185Z,928.46
2019-03-31T08:30:16.219Z,928.53
2019-03-31T08:31:16.251Z,928.57
2019-03-31T08:32:16.303Z,928.55
2019-03-31T08:33:16.359Z,928.58
2019-03-31T08:34:16.373Z,928.59
2019-03-31T08:35:16.454Z,928.56
2019-03-31T08:36:16.486Z,928.49
2019-03-31T08:37:16.517Z,928.52
2019-03-31T08:38:16.569Z,928.46
2019-03-31T08:39:16.592Z,928.44
2019-03-31T08:40:16.672Z,928.40
2019-03-31T08:41:16.696Z,928.38
2019-03-31T08:42:16.788Z,928.38
2019-03-31T08:43:16.790Z,928.40
2019-03-31T08:44:16.873Z,928.43
2019-03-31T08:45:16.886Z,928.46
2019-03-31T08:46:16.962Z,928.56
2019-03-31T08:47:16.967Z,928.63
2019-03-31T08:48:17.039Z,928.68
2019-03-31T08:49:17.039Z,928.78
2019-03-31T08:50:17.106Z,928.76
2019-03-31T08:51:17.122Z,928.78
2019-03-31T08:52:17.191Z,928.80
2019-03-31T08:53:17.266Z,928.84
2019-03-31T08:54:17.285Z,928.85
2019-03-31T08:55:17.361Z,928.93
2019-03-31T08:56:17.372Z,928.96
2019-03-31T08:57:17.399Z,929.00
2019-03-31T08:58:17.421Z,929.08
2019-03-31T08:59:17.490Z,929.11
2019-03-31T09:00:17.526Z,929.11
2019-03-31T09:01:17.584Z,929.08
2019-03-31T09:02:17.634Z,929.12
2019-03-31T09:03:17.655Z,929.13
2019-03-31T09:04:17.694Z,929.17
2019-03-31T09:05:17.814Z,929.26
2019-03-31T09:06:17.801Z,929.15
2019-03-31T09:07:17.836Z,929.25
2019-03-31T09:08:17.863Z,929.29
2019-03-31T09:09:17.910Z,929.26
2019-03-31T09:10:17.948Z,929.32
2019-03-31T09:11:18.000Z,929.32
2019-03-31T09:12:18.059Z,929.33
2019-03-31T09:13:18.073Z,929.32
2019-03-31T09:14:18.140Z,929.30
2019-03-31T09:15:18.189Z,929.25
2019-03-31T09:16:18.208Z,929.25
2019-03-31T09:17:18.258Z,929.27
2019-03-31T09:18:18.347Z,929.24
2019-03-31T09:19:18.349Z,929.24
2019-03-31T09:20:18.386Z,929.22
2019-03-31T09:21:18.429Z,929.29
2019-03-31T09:22:18.483Z,929.25
2019-03-31T09:23:18.528Z,929.27
2019-03-31T09:24:18.576Z,929.19
2019-03-31T09:25:18.627Z,929.23
2019-03-31T09:26:18.689Z,929.17
2019-03-31T09:27:18.710Z,929.15
2019-03-31T09:28:18.732Z,929.11
2019-03-31T09:29:18.788Z,929.11
2019-03-31T09:30:18.853Z,929.05
2019-03-31T09:31:18.877Z,929.05
2019-03-31T09:32:18.938Z,929.06
2019-03-31T09:33:18.967Z,929.04
2019-03-31T09:34:19.025Z,929.07
2019-03-31T09:35:19.046Z,929.07
2019-03-31T09:36:19.147Z,929.08
2019-03-31T09:37:19.186Z,929.11
2019-03-31T09:38:19.175Z,929.08
2019-03-31T09:39:19.234Z,929.11
2019-03-31T09:40:19.259Z,929.17
2019-03-31T09:41:19.330Z,929.16
2019-03-31T09:42:19.382Z,929.14
2019-03-31T09:43:19.422Z,929.13
2019-03-31T09:44:19.471Z,929.17
2019-03-31T09:45:19.497Z,929.16
2019-03-31T09:46:19.547Z,929.18
2019-03-31T09:47:19.585Z,929.22
2019-03-31T09:48:19.629Z,929.23
2019-03-31T09:49:19.681Z,929.20
2019-03-31T09:50:19.718Z,929.20
2019-03-31T09:51:19.753Z,929.22
2019-03-31T09:52:19.790Z,929.20
2019-03-31T09:53:19.852Z,929.18
2019-03-31T09:54:19.886Z,929.21
2019-03-31T09:55:22.953Z,929.11
2019-03-31T09:56:19.988Z,929.17
2019-03-31T09:57:20.004Z,929.22
2019-03-31T09:58:20.068Z,929.22
2019-03-31T09:59:20.082Z,929.28
2019-03-31T10:00:20.154Z,929.26
2019-03-31T10:01:20.189Z,929.22
2019-03-31T10:02:20.231Z,929.24
2019-03-31T10:03:20.276Z,929.23
2019-03-31T10:04:20.310Z,929.23
2019-03-31T10:05:20.366Z,929.26
2019-03-31T10:06:30.019Z,929.26
2019-03-31T10:07:23.759Z,929.29
2019-03-31T10:08:22.278Z,929.25
2019-03-31T10:09:20.532Z,929.29
2019-03-31T10:10:20.582Z,929.35
2019-03-31T10:11:20.623Z,929.37
2019-03-31T10:12:20.675Z,929.41
2019-03-31T10:13:20.716Z,929.38
2019-03-31T10:14:20.815Z,929.32
2019-03-31T10:15:20.815Z,929.42
2019-03-31T10:16:20.857Z,929.42
2019-03-31T10:17:20.914Z,929.42
2019-03-31T10:18:20.935Z,929.46
2019-03-31T10:19:21.000Z,929.42
2019-03-31T10:20:21.070Z,929.46
2019-03-31T10:21:21.087Z,929.47
2019-03-31T10:22:21.142Z,929.43
2019-03-31T10:23:21.161Z,929.48
2019-03-31T10:24:21.228Z,929.50
2019-03-31T10:25:21.263Z,929.60
2019-03-31T10:26:31.826Z,929.58
2019-03-31T10:27:21.349Z,929.57
2019-03-31T10:28:21.390Z,929.59
2019-03-31T10:29:21.468Z,929.60
2019-03-31T10:30:21.505Z,929.55
2019-03-31T10:31:21.540Z,929.57
2019-03-31T10:32:21.622Z,929.60
2019-03-31T10:33:21.610Z,929.61
2019-03-31T10:34:21.676Z,929.61
2019-03-31T10:35:21.726Z,929.64
2019-03-31T10:36:21.785Z,929.63
2019-03-31T10:37:21.797Z,929.65
2019-03-31T10:38:21.840Z,929.61
2019-03-31T10:39:21.929Z,929.63
2019-03-31T10:40:21.985Z,929.60
2019-03-31T10:41:21.976Z,929.65
2019-03-31T10:42:22.054Z,929.72
2019-03-31T10:43:22.056Z,929.76
2019-03-31T10:44:22.126Z,929.83
2019-03-31T10:45:22.181Z,929.83
2019-03-31T10:46:22.218Z,929.87
2019-03-31T10:47:22.266Z,929.90
2019-03-31T10:48:22.328Z,929.99
2019-03-31T10:49:22.364Z,930.01
2019-03-31T10:50:22.408Z,930.12
2019-03-31T10:51:22.452Z,930.16
2019-03-31T10:52:22.503Z,930.17
2019-03-31T10:53:22.525Z,930.21
2019-03-31T10:54:22.580Z,930.26
2019-03-31T10:55:22.617Z,930.25
2019-03-31T10:56:22.717Z,930.27
2019-03-31T10:57:22.734Z,930.29
2019-03-31T10:58:22.761Z,930.30
2019-03-31T10:59:22.792Z,930.32
2019-03-31T11:00:22.878Z,930.36
2019-03-31T11:01:22.947Z,930.30
2019-03-31T11:02:22.977Z,930.31
2019-03-31T11:03:22.987Z,930.30
2019-03-31T11:04:23.093Z,930.32
2019-03-31T11:05:23.082Z,930.31
2019-03-31T11:06:23.144Z,930.34
2019-03-31T11:07:23.238Z,930.32
2019-03-31T11:08:23.284Z,930.38
2019-03-31T11:09:23.290Z,930.33
2019-03-31T11:10:23.324Z,930.35
2019-03-31T11:11:23.369Z,930.39
2019-03-31T11:12:23.422Z,930.34
2019-03-31T11:13:23.467Z,930.36
2019-03-31T11:14:23.513Z,930.33
2019-03-31T11:15:23.545Z,930.32
2019-03-31T11:16:23.597Z,930.33
2019-03-31T11:17:23.670Z,930.32
2019-03-31T11:18:23.696Z,930.35
2019-03-31T11:19:23.734Z,930.42
2019-03-31T11:20:23.802Z,930.39
2019-03-31T11:21:23.845Z,930.39
2019-03-31T11:22:23.889Z,930.41
2019-03-31T11:23:23.941Z,930.38
2019-03-31T11:24:23.977Z,930.42
2019-03-31T11:25:28.939Z,930.39
2019-03-31T11:26:24.054Z,930.44
2019-03-31T11:27:24.140Z,930.42
2019-03-31T11:28:24.156Z,930.41
2019-03-31T11:29:24.215Z,930.46
2019-03-31T11:30:24.238Z,930.44
2019-03-31T11:31:24.321Z,930.51
2019-03-31T11:32:24.364Z,930.47
2019-03-31T11:33:24.415Z,930.44
2019-03-31T11:34:24.458Z,930.42
2019-03-31T11:35:24.539Z,930.49
2019-03-31T11:36:24.566Z,930.47
2019-03-31T11:37:24.628Z,930.51
2019-03-31T11:38:24.628Z,930.49
2019-03-31T11:39:24.704Z,930.53
2019-03-31T11:40:24.748Z,930.55
2019-03-31T11:41:24.821Z,930.51
2019-03-31T11:42:24.823Z,930.57
2019-03-31T11:43:24.869Z,930.49
2019-03-31T11:44:27.520Z,930.53
2019-03-31T11:45:24.979Z,930.57
2019-03-31T11:46:25.032Z,930.59
2019-03-31T11:47:25.066Z,930.59
2019-03-31T11:48:25.108Z,930.61
2019-03-31T11:49:25.159Z,930.56
2019-03-31T11:50:25.212Z,930.59
2019-03-31T11:51:25.273Z,930.55
2019-03-31T11:52:25.323Z,930.62
2019-03-31T11:53:25.339Z,930.70
2019-03-31T11:54:25.493Z,930.67
2019-03-31T11:55:25.444Z,930.65
2019-03-31T11:56:25.533Z,930.68
2019-03-31T11:57:25.547Z,930.66
2019-03-31T11:58:25.603Z,930.70
2019-03-31T11:59:25.660Z,930.73
2019-03-31T12:00:25.683Z,930.75
2019-03-31T12:01:25.753Z,930.70
2019-03-31T12:02:27.235Z,930.74
2019-03-31T12:03:25.922Z,930.72
2019-03-31T12:04:25.895Z,930.73
2019-03-31T12:05:25.943Z,930.77
2019-03-31T12:06:25.995Z,930.78
2019-03-31T12:07:28.207Z,930.78
2019-03-31T12:08:26.095Z,930.79
2019-03-31T12:09:26.158Z,930.81
2019-03-31T12:10:26.197Z,930.85
2019-03-31T12:11:26.227Z,930.84
2019-03-31T12:12:26.301Z,930.77
2019-03-31T12:13:26.346Z,930.76
2019-03-31T12:14:26.390Z,930.78
2019-03-31T12:15:26.424Z,930.77
2019-03-31T12:16:26.493Z,930.78
2019-03-31T12:17:26.548Z,930.80
2019-03-31T12:18:26.583Z,930.77
2019-03-31T12:19:26.645Z,930.78
2019-03-31T12:20:26.678Z,930.81
2019-03-31T12:21:26.741Z,930.77
2019-03-31T12:22:26.800Z,930.66
2019-03-31T12:23:26.854Z,930.69
2019-03-31T12:24:26.939Z,930.68
2019-03-31T12:25:26.988Z,930.58
2019-03-31T12:26:27.013Z,930.63
2019-03-31T12:27:27.050Z,930.63
2019-03-31T12:28:27.105Z,930.64
2019-03-31T12:29:27.175Z,930.59